Time;durP1;ratioP1;P1;durP2;ratioP2;P2;SDS_P1;SDS_P2;PMS_P1;PMS_P2;Temp;Humidity;BMP_temperature;BMP_pressure;BME280_temperature;BME280_humidity;BME280_pressure;Samples;Min_cycle;Max_cycle;Signal;HPM_P1;HPM_P2
2024/01/30 00:00:43;;;;;;;;;;;;;;;27.03;36.85;95538.03;4916670;29;7501;-37
2024/01/30 00:03:18;;;;;;;;;;;;;;;27.04;37.05;95545.06;4917775;28;7151;-37
2024/01/30 00:05:54;;;;;;;;;;;;;;;27.03;37.07;95540.78;4954879;28;7624;-37
2024/01/30 00:08:21;;;;;;;;;;;;;;;27.04;36.85;95541.53;4975537;28;7511;-37
2024/01/30 00:10:57;;;;;;;;;;;;;;;27.05;36.69;95543.81;5017247;28;7331;-37
2024/01/30 00:13:32;;;;;;;;;;;;;;;27.07;37.00;95546.06;5036398;28;7430;-37
2024/01/30 00:15:58;;;;;;;;;;;;;;;27.06;36.89;95539.78;5051224;28;7231;-37
2024/01/30 00:18:24;;;;;;;;;;;;;;;27.07;37.08;95544.06;5050646;28;7230;-37
2024/01/30 00:20:50;;;;;;;;;;;;;;;27.07;36.63;95541.31;5044338;28;7233;-37
2024/01/30 00:23:18;;;;;;;;;;;;;;;27.08;36.60;95537.28;5073700;28;9238;-37
2024/01/30 00:25:44;;;;;;;;;;;;;;;27.09;36.66;95538.06;5069055;28;7317;-37
2024/01/30 00:28:12;;;;;;;;;;;;;;;27.07;36.74;95538.56;5056572;28;7175;-37
2024/01/30 00:30:38;;;;;;;;;;;;;;;27.06;36.67;95550.84;5053286;28;7364;-37
2024/01/30 00:33:05;;;;;;;;;;;;;;;27.05;36.85;95543.81;5061480;28;7118;-37
2024/01/30 00:35:34;;;;;;;;;;;;;;;27.06;37.27;95545.31;5070521;28;6981;-37
2024/01/30 00:38:13;;;;;;;;;;;;;;;27.06;36.60;95544.53;5070832;28;9027;-37
2024/01/30 00:40:48;;;;;;;;;;;;;;;27.04;36.58;95542.28;5073512;28;7262;-37
2024/01/30 00:43:35;;;;;;;;;;;;;;;27.05;36.56;95541.06;5062397;28;9051;-37
2024/01/30 00:46:39;;;;;;;;;;;;;;;27.04;36.39;95542.28;5076654;28;7446;-37
2024/01/30 00:49:24;;;;;;;;;;;;;;;27.04;36.60;95545.06;5058676;28;9226;-37
2024/01/30 00:51:50;;;;;;;;;;;;;;;27.03;36.44;95540.03;5051803;28;7212;-37
2024/01/30 00:54:23;;;;;;;;;;;;;;;27.04;36.52;95547.81;5055342;28;7276;-37
2024/01/30 00:57:09;;;;;;;;;;;;;;;27.02;36.40;95544.03;5056627;28;7330;-37
2024/01/30 01:00:32;;;;;;;;;;;;;;;27.03;36.67;95545.56;5043799;28;7119;-37
2024/01/30 01:02:59;;;;;;;;;;;;;;;27.02;36.27;95544.03;5003531;28;7074;-37
2024/01/30 01:05:33;;;;;;;;;;;;;;;26.98;35.97;95541.50;4989292;28;7688;-37
2024/01/30 01:08:00;;;;;;;;;;;;;;;27.00;36.94;95543.75;4994958;28;7281;-37
2024/01/30 01:10:41;;;;;;;;;;;;;;;27.00;36.55;95541.75;4974811;28;7272;-37
2024/01/30 01:13:41;;;;;;;;;;;;;;;27.00;36.56;95541.75;4986499;28;9279;-37
2024/01/30 01:16:07;;;;;;;;;;;;;;;26.98;36.49;95544.25;5004824;28;7187;-37
2024/01/30 01:18:35;;;;;;;;;;;;;;;26.97;36.65;95544.75;4985848;28;7176;-37
2024/01/30 01:21:01;;;;;;;;;;;;;;;26.98;36.04;95544.25;4977842;28;6995;-58
2024/01/30 01:23:27;;;;;;;;;;;;;;;26.99;36.55;95540.25;4990740;28;6981;-57
2024/01/30 01:25:53;;;;;;;;;;;;;;;26.98;36.63;95544.25;4973554;28;9030;-57
2024/01/30 01:28:19;;;;;;;;;;;;;;;26.96;36.49;95541.25;4972452;28;9224;-57
2024/01/30 01:30:46;;;;;;;;;;;;;;;26.98;36.63;95549.03;5002678;28;8896;-58
2024/01/30 01:33:14;;;;;;;;;;;;;;;26.97;37.05;95542.75;5000122;28;7075;-57
2024/01/30 01:35:50;;;;;;;;;;;;;;;26.96;36.89;95541.25;5069999;28;7988;-58
2024/01/30 01:38:43;;;;;;;;;;;;;;;26.97;36.32;95544.75;5043435;28;7022;-58
2024/01/30 01:41:26;;;;;;;;;;;;;;;26.94;36.57;95538.22;5065929;28;7149;-57
2024/01/30 01:43:55;;;;;;;;;;;;;;;26.96;36.53;95538.47;5063014;28;8765;-58
2024/01/30 01:46:32;;;;;;;;;;;;;;;26.95;36.27;95528.66;5067795;28;7128;-58
2024/01/30 01:49:27;;;;;;;;;;;;;;;26.95;36.46;95527.94;5046041;28;7606;-58
2024/01/30 01:52:22;;;;;;;;;;;;;;;26.93;36.37;95533.94;5040272;28;7322;-58
2024/01/30 01:55:02;;;;;;;;;;;;;;;26.91;36.55;95522.63;5057138;28;7272;-57
2024/01/30 01:57:55;;;;;;;;;;;;;;;26.92;36.39;95529.69;5054563;28;7240;-57
2024/01/30 02:01:05;;;;;;;;;;;;;;;26.92;36.36;95533.16;5045313;28;7262;-57
2024/01/30 02:03:34;;;;;;;;;;;;;;;26.93;36.34;95528.41;5058869;28;7660;-57
2024/01/30 02:06:09;;;;;;;;;;;;;;;26.90;36.02;95532.91;5055352;28;9153;-57
2024/01/30 02:08:37;;;;;;;;;;;;;;;26.92;36.32;95529.69;5054739;28;9352;-57
2024/01/30 02:11:24;;;;;;;;;;;;;;;26.91;36.52;95539.19;5059086;28;8751;-58
2024/01/30 02:14:19;;;;;;;;;;;;;;;26.92;36.42;95528.91;5052726;28;7035;-57
2024/01/30 02:16:45;;;;;;;;;;;;;;;26.90;36.12;95521.88;5066436;28;7339;-57
2024/01/30 02:19:11;;;;;;;;;;;;;;;26.91;36.01;95522.63;5057218;28;7316;-58
2024/01/30 02:21:40;;;;;;;;;;;;;;;26.90;36.47;95535.66;5043493;28;7158;-58
2024/01/30 02:24:14;;;;;;;;;;;;;;;26.91;36.19;95536.44;5053943;28;7342;-57
2024/01/30 02:26:39;;;;;;;;;;;;;;;26.90;36.45;95530.16;5064281;28;6979;-57
2024/01/30 02:29:06;;;;;;;;;;;;;;;26.92;36.28;95534.44;5056650;28;7043;-57
2024/01/30 02:31:32;;;;;;;;;;;;;;;26.89;36.28;95531.41;5050052;28;7240;-37
2024/01/30 02:33:58;;;;;;;;;;;;;;;26.85;36.80;95530.88;5054344;28;6980;-37
2024/01/30 02:36:25;;;;;;;;;;;;;;;26.88;36.55;95527.13;5052211;28;7289;-37
2024/01/30 02:39:03;;;;;;;;;;;;;;;26.89;36.31;95530.66;5027193;28;7069;-38
2024/01/30 02:41:58;;;;;;;;;;;;;;;26.90;36.24;95532.91;5044111;28;7009;-37
2024/01/30 02:44:24;;;;;;;;;;;;;;;26.87;36.65;95530.38;5047685;28;7230;-37
2024/01/30 02:46:50;;;;;;;;;;;;;;;26.88;36.13;95529.88;5044588;28;8781;-37
2024/01/30 02:49:16;;;;;;;;;;;;;;;26.84;36.23;95523.06;5071125;28;7244;-37
2024/01/30 02:51:43;;;;;;;;;;;;;;;26.87;36.43;95527.63;5049203;28;6988;-37
2024/01/30 02:54:20;;;;;;;;;;;;;;;26.85;36.34;95521.84;5052050;28;9020;-37
2024/01/30 02:56:48;;;;;;;;;;;;;;;26.84;36.46;95517.56;5068845;28;9851;-37
2024/01/30 02:59:25;;;;;;;;;;;;;;;26.86;36.31;95518.56;5055270;28;8786;-37
2024/01/30 03:01:55;;;;;;;;;;;;;;;26.84;36.41;95517.56;5057568;28;7041;-37
2024/01/30 03:04:24;;;;;;;;;;;;;;;26.87;36.35;95522.88;5034787;28;7421;-37
2024/01/30 03:06:50;;;;;;;;;;;;;;;26.90;36.10;95521.13;5059325;28;9616;-37
2024/01/30 03:09:21;;;;;;;;;;;;;;;26.88;36.16;95521.59;5064935;28;6980;-37
2024/01/30 03:11:49;;;;;;;;;;;;;;;26.87;36.15;95516.59;5042193;28;9253;-37
2024/01/30 03:14:20;;;;;;;;;;;;;;;26.87;36.10;95511.06;5048461;28;8991;-37
2024/01/30 03:16:48;;;;;;;;;;;;;;;26.85;35.92;95513.56;5056539;28;7354;-38
2024/01/30 03:19:16;;;;;;;;;;;;;;;26.83;36.20;95511.31;5065958;28;9255;-38
2024/01/30 03:21:42;;;;;;;;;;;;;;;26.80;36.03;95503.22;5051661;28;7004;-37
2024/01/30 03:24:10;;;;;;;;;;;;;;;26.77;36.20;95509.75;5035700;28;7229;-38
2024/01/30 03:26:43;;;;;;;;;;;;;;;26.77;36.43;95507.00;5042512;28;7315;-38
2024/01/30 03:29:10;;;;;;;;;;;;;;;26.77;36.30;95513.25;5067388;28;7051;-37
2024/01/30 03:31:42;;;;;;;;;;;;;;;26.74;36.34;95510.72;5072775;28;7234;-37
2024/01/30 03:34:15;;;;;;;;;;;;;;;26.76;36.09;95506.22;5060090;28;7469;-37
2024/01/30 03:36:51;;;;;;;;;;;;;;;26.77;36.38;95510.50;5056737;28;6916;-37
2024/01/30 03:39:27;;;;;;;;;;;;;;;26.74;36.52;95510.72;5065505;28;7467;-37
2024/01/30 03:42:03;;;;;;;;;;;;;;;26.73;36.21;95507.19;5055789;28;7840;-37
2024/01/30 03:44:28;;;;;;;;;;;;;;;26.69;36.23;95505.88;5043425;28;9039;-37
2024/01/30 03:47:00;;;;;;;;;;;;;;;26.73;36.42;95506.47;5060831;28;7269;-37
2024/01/30 03:49:28;;;;;;;;;;;;;;;26.72;36.49;95505.66;5047386;28;7260;-37
2024/01/30 03:51:57;;;;;;;;;;;;;;;26.71;36.09;95504.16;5067889;28;9081;-37
2024/01/30 03:54:49;;;;;;;;;;;;;;;26.73;36.29;95506.47;5054658;28;7426;-37
2024/01/30 03:57:16;;;;;;;;;;;;;;;26.70;36.19;95515.69;4998699;28;7366;-37
2024/01/30 04:00:28;;;;;;;;;;;;;;;26.72;36.33;95507.66;4977036;28;7241;-37
2024/01/30 04:02:54;;;;;;;;;;;;;;;26.73;36.50;95512.00;4940488;28;7251;-37
2024/01/30 04:05:30;;;;;;;;;;;;;;;26.69;36.36;95508.66;4957234;28;9039;-37
2024/01/30 04:07:58;;;;;;;;;;;;;;;26.69;36.36;95503.13;4941108;28;7468;-37
2024/01/30 04:10:35;;;;;;;;;;;;;;;26.69;36.31;95505.88;4955008;28;7233;-37
2024/01/30 04:13:01;;;;;;;;;;;;;;;26.71;35.89;95503.38;4941586;28;7157;-37
2024/01/30 04:15:29;;;;;;;;;;;;;;;26.70;36.28;95501.88;4940332;28;8745;-37
2024/01/30 04:17:59;;;;;;;;;;;;;;;26.68;36.36;95504.38;4956295;28;7341;-37
2024/01/30 04:20:29;;;;;;;;;;;;;;;26.69;36.34;95503.88;4937495;28;7202;-37
2024/01/30 04:23:08;;;;;;;;;;;;;;;26.68;36.52;95505.16;4950052;28;7231;-37
2024/01/30 04:25:59;;;;;;;;;;;;;;;26.70;36.44;95504.66;4945581;28;6990;-37
2024/01/30 04:28:25;;;;;;;;;;;;;;;26.68;36.29;95507.16;4929086;28;7257;-37
2024/01/30 04:31:01;;;;;;;;;;;;;;;26.69;36.31;95505.88;4948393;28;7348;-37
2024/01/30 04:33:46;;;;;;;;;;;;;;;26.69;36.25;95505.88;4968640;28;7256;-37
2024/01/30 04:36:27;;;;;;;;;;;;;;;26.68;35.85;95499.63;5010874;28;7248;-36
2024/01/30 04:39:09;;;;;;;;;;;;;;;26.69;36.08;95505.88;5005150;28;8378;-37
2024/01/30 04:41:35;;;;;;;;;;;;;;;26.67;36.22;95505.63;5039692;28;8916;-37
2024/01/30 04:44:15;;;;;;;;;;;;;;;26.67;36.18;95503.63;5055760;28;8017;-37
2024/01/30 04:46:52;;;;;;;;;;;;;;;26.66;36.37;95501.38;5056745;28;7000;-37
2024/01/30 04:49:36;;;;;;;;;;;;;;;26.65;36.12;95499.84;5062109;28;7130;-37
2024/01/30 04:52:09;;;;;;;;;;;;;;;26.68;36.24;95504.38;5062574;28;9142;-40
2024/01/30 04:54:44;;;;;;;;;;;;;;;26.68;36.43;95504.38;5054402;28;7267;-43
2024/01/30 04:57:41;;;;;;;;;;;;;;;26.64;36.59;95499.06;5058355;28;8469;-39
2024/01/30 05:00:08;;;;;;;;;;;;;;;26.62;36.23;95498.06;4976631;28;7010;-40
2024/01/30 05:02:42;;;;;;;;;;;;;;;26.62;36.37;95498.06;4999794;28;7237;-39
2024/01/30 05:05:13;;;;;;;;;;;;;;;26.65;36.53;95505.34;5010564;28;8662;-40
2024/01/30 05:07:57;;;;;;;;;;;;;;;26.64;36.50;95510.13;4992434;28;8788;-39
2024/01/30 05:10:41;;;;;;;;;;;;;;;26.63;36.06;95502.34;4993954;28;8721;-39
2024/01/30 05:13:16;;;;;;;;;;;;;;;26.64;36.39;95504.59;4978282;28;7021;-39
2024/01/30 05:16:03;;;;;;;;;;;;;;;26.61;36.34;95500.06;4976376;28;6993;-39
2024/01/30 05:18:29;;;;;;;;;;;;;;;26.62;37.00;95514.63;4963978;28;7282;-39
2024/01/30 05:20:54;;;;;;;;;;;;;;;26.60;36.45;95517.88;4976278;28;7889;-39
2024/01/30 05:23:20;;;;;;;;;;;;;;;26.64;36.74;95520.41;5004475;28;7431;-39
2024/01/30 05:25:46;;;;;;;;;;;;;;;26.64;36.01;95514.91;5012482;28;9157;-39
2024/01/30 05:28:21;;;;;;;;;;;;;;;26.65;36.61;95521.91;4990783;28;7076;-39
2024/01/30 05:30:58;;;;;;;;;;;;;;;26.64;36.53;95521.16;4978072;28;8781;-40
2024/01/30 05:33:53;;;;;;;;;;;;;;;26.63;36.38;95521.66;4994793;28;7893;-39
2024/01/30 05:36:38;;;;;;;;;;;;;;;26.64;36.43;95531.47;4923504;28;7382;-39
2024/01/30 05:39:07;;;;;;;;;;;;;;;26.61;36.12;95526.91;4975525;28;7264;-39
2024/01/30 05:42:04;;;;;;;;;;;;;;;26.63;36.62;95527.94;4974951;28;7268;-39
2024/01/30 05:44:31;;;;;;;;;;;;;;;26.60;36.60;95534.41;4928221;28;7243;-39
2024/01/30 05:47:06;;;;;;;;;;;;;;;26.61;36.28;95532.44;4940135;28;6993;-39
2024/01/30 05:49:37;;;;;;;;;;;;;;;26.51;36.86;95531.09;4934860;28;7286;-40
2024/01/30 05:52:41;;;;;;;;;;;;;;;26.51;36.66;95536.63;4935378;28;9208;-40
2024/01/30 05:55:21;;;;;;;;;;;;;;;26.55;37.02;95529.63;4834621;29;9291;-39
2024/01/30 05:57:48;;;;;;;;;;;;;;;26.55;36.57;95534.38;4841750;29;7239;-39
2024/01/30 06:00:22;;;;;;;;;;;;;;;26.56;37.00;95525.63;4840059;29;7147;-56
2024/01/30 06:02:59;;;;;;;;;;;;;;;26.59;36.40;95537.69;4843381;29;7450;-56
2024/01/30 06:05:27;;;;;;;;;;;;;;;26.57;36.89;95535.41;4841820;29;7150;-55
2024/01/30 06:08:02;;;;;;;;;;;;;;;26.57;36.59;95548.44;4841537;29;9588;-56
2024/01/30 06:10:28;;;;;;;;;;;;;;;26.55;36.88;95542.66;4839932;29;7566;-56
2024/01/30 06:13:03;;;;;;;;;;;;;;;26.59;36.81;95548.72;4876713;29;7060;-56
2024/01/30 06:15:29;;;;;;;;;;;;;;;26.54;36.73;95541.91;4902509;29;7272;-56
2024/01/30 06:17:56;;;;;;;;;;;;;;;26.56;36.54;95544.94;4920123;29;7233;-56
2024/01/30 06:20:22;;;;;;;;;;;;;;;26.56;37.33;95546.94;4922482;28;7816;-57
2024/01/30 06:22:48;;;;;;;;;;;;;;;26.55;37.76;95545.44;4935678;28;9079;-55
2024/01/30 06:25:14;;;;;;;;;;;;;;;26.51;37.90;95555.94;4949873;28;8801;-55
2024/01/30 06:27:40;;;;;;;;;;;;;;;26.52;36.93;95549.91;4936044;28;9282;-56
2024/01/30 06:30:06;;;;;;;;;;;;;;;26.52;37.64;95551.91;5045199;28;7265;-56
2024/01/30 06:32:34;;;;;;;;;;;;;;;26.55;37.79;95559.22;5057231;28;7280;-55
2024/01/30 06:35:01;;;;;;;;;;;;;;;26.54;37.50;95550.19;5066926;28;7346;-55
2024/01/30 06:37:30;;;;;;;;;;;;;;;26.53;37.22;95548.69;5042196;28;7106;-56
2024/01/30 06:39:57;;;;;;;;;;;;;;;26.55;36.84;95553.72;5047637;28;7337;-55
2024/01/30 06:42:25;;;;;;;;;;;;;;;26.52;37.22;95549.16;5050433;28;7345;-56
2024/01/30 06:44:54;;;;;;;;;;;;;;;26.56;36.95;95558.72;5056860;28;9145;-55
2024/01/30 06:47:21;;;;;;;;;;;;;;;26.57;37.09;95556.72;5059537;28;7082;-55
2024/01/30 06:49:49;;;;;;;;;;;;;;;26.55;37.44;95567.50;5059695;28;7187;-56
2024/01/30 06:52:22;;;;;;;;;;;;;;;26.55;36.97;95559.22;5051839;28;9184;-56
2024/01/30 06:54:50;;;;;;;;;;;;;;;26.55;37.05;95553.72;5061540;28;7142;-56
2024/01/30 06:57:16;;;;;;;;;;;;;;;26.54;37.10;95561.22;5050914;28;8764;-56
2024/01/30 06:59:43;;;;;;;;;;;;;;;26.50;37.13;95554.41;5076678;28;9032;-56
2024/01/30 07:02:19;;;;;;;;;;;;;;;26.53;36.97;95561.72;5070396;28;9105;-56
2024/01/30 07:04:45;;;;;;;;;;;;;;;26.52;37.19;95560.97;5066219;28;8779;-56
2024/01/30 07:07:12;;;;;;;;;;;;;;;26.51;36.78;95564.94;5057961;28;7229;-55
2024/01/30 07:09:42;;;;;;;;;;;;;;;26.52;36.84;95573.97;5062413;28;9032;-56
2024/01/30 07:12:33;;;;;;;;;;;;;;;26.50;36.79;95565.44;5043678;28;8870;-42
2024/01/30 07:15:28;;;;;;;;;;;;;;;26.51;37.36;95573.22;5067498;28;7122;-41
2024/01/30 07:18:09;;;;;;;;;;;;;;;26.50;37.64;95573.72;4989635;28;8941;-42
2024/01/30 07:20:41;;;;;;;;;;;;;;;26.49;37.05;95580.50;5001927;28;7263;-42
2024/01/30 07:23:07;;;;;;;;;;;;;;;26.50;37.06;95573.72;5003194;28;7173;-42
2024/01/30 07:25:36;;;;;;;;;;;;;;;26.48;36.96;95574.22;5002187;28;7055;-43
2024/01/30 07:28:13;;;;;;;;;;;;;;;26.45;36.94;95583.47;4992423;28;7237;-42
2024/01/30 07:30:39;;;;;;;;;;;;;;;26.44;36.86;95584.72;5002512;28;7251;-42
2024/01/30 07:33:09;;;;;;;;;;;;;;;26.50;36.75;95588.28;4982896;28;9049;-41
2024/01/30 07:35:36;;;;;;;;;;;;;;;26.54;36.72;95590.81;4990803;28;7198;-42
2024/01/30 07:38:02;;;;;;;;;;;;;;;26.52;36.59;95590.53;4992334;28;7744;-42
2024/01/30 07:40:28;;;;;;;;;;;;;;;26.51;36.89;95594.56;4994182;28;7127;-41
2024/01/30 07:42:54;;;;;;;;;;;;;;;26.51;36.25;95580.75;4993334;28;6994;-42
2024/01/30 07:45:22;;;;;;;;;;;;;;;26.50;36.81;95588.28;5001544;28;9544;-42
2024/01/30 07:47:51;;;;;;;;;;;;;;;26.46;36.40;95587.75;5001952;28;6996;-42
2024/01/30 07:50:19;;;;;;;;;;;;;;;26.49;36.91;95589.50;4995164;28;8781;-43
2024/01/30 07:52:48;;;;;;;;;;;;;;;26.51;36.47;95592.53;4991125;28;9442;-43
2024/01/30 07:55:16;;;;;;;;;;;;;;;26.48;36.50;95596.28;5055812;28;7373;-42
2024/01/30 07:57:52;;;;;;;;;;;;;;;26.52;36.83;95596.81;5062437;28;8618;-42
2024/01/30 08:00:20;;;;;;;;;;;;;;;26.52;36.56;95598.81;5075088;28;7330;-43
2024/01/30 08:02:46;;;;;;;;;;;;;;;26.51;36.59;95598.06;5049748;28;7249;-41
2024/01/30 08:05:15;;;;;;;;;;;;;;;26.52;36.72;95596.06;5067279;28;6961;-44
2024/01/30 08:08:19;;;;;;;;;;;;;;;26.52;37.07;95601.56;5052292;28;9169;-43
2024/01/30 08:10:56;;;;;;;;;;;;;;;26.54;36.83;95594.34;4980614;28;7128;-42
2024/01/30 08:13:23;;;;;;;;;;;;;;;26.53;36.63;95594.81;4971071;28;7010;-43
2024/01/30 08:15:52;;;;;;;;;;;;;;;26.54;36.81;95599.84;4959371;28;7368;-43
2024/01/30 08:18:29;;;;;;;;;;;;;;;26.56;37.19;95599.34;4966631;28;7006;-43
2024/01/30 08:20:55;;;;;;;;;;;;;;;26.55;36.97;95598.63;4988220;28;7391;-42
2024/01/30 08:23:21;;;;;;;;;;;;;;;26.54;37.07;95601.84;5003582;28;7535;-42
2024/01/30 08:26:02;;;;;;;;;;;;;;;26.52;37.03;95596.81;4986306;28;8725;-42
2024/01/30 08:28:37;;;;;;;;;;;;;;;26.56;36.95;95607.63;4996398;28;7236;-44
2024/01/30 08:31:19;;;;;;;;;;;;;;;26.53;37.14;95601.13;4977618;28;9110;-39
2024/01/30 08:33:57;;;;;;;;;;;;;;;26.57;37.44;95598.13;4977456;28;7210;-41
2024/01/30 08:36:39;;;;;;;;;;;;;;;26.57;36.93;95607.16;4983410;28;9273;-40
2024/01/30 08:39:07;;;;;;;;;;;;;;;26.57;37.37;95609.94;5004465;28;7017;-40
2024/01/30 08:41:51;;;;;;;;;;;;;;;26.57;37.40;95609.16;5028734;28;7203;-40
2024/01/30 08:44:18;;;;;;;;;;;;;;;26.55;37.34;95612.41;5051008;28;6992;-39
2024/01/30 08:46:46;;;;;;;;;;;;;;;26.58;37.46;95613.41;5058543;28;7235;-39
2024/01/30 08:49:21;;;;;;;;;;;;;;;26.59;37.19;95617.72;5056955;28;6856;-40
2024/01/30 08:51:53;;;;;;;;;;;;;;;26.61;37.61;95620.72;5053269;28;9524;-40
2024/01/30 08:54:23;;;;;;;;;;;;;;;26.60;37.57;95613.72;5049904;28;8628;-40
2024/01/30 08:57:19;;;;;;;;;;;;;;;26.61;37.59;95620.72;5062247;28;8933;-41
2024/01/30 08:59:56;;;;;;;;;;;;;;;26.62;37.47;95617.47;4983388;28;7074;-41
2024/01/30 09:02:40;;;;;;;;;;;;;;;26.65;37.50;95624.03;4998955;28;7250;-39
2024/01/30 09:05:36;;;;;;;;;;;;;;;26.65;37.46;95621.25;4985484;28;7294;-40
2024/01/30 09:08:02;;;;;;;;;;;;;;;26.67;37.22;95621.53;4936989;28;7026;-40
2024/01/30 09:11:23;;;;;;;;;;;;;;;26.65;37.48;95615.75;4923265;28;7802;-40
2024/01/30 09:13:58;;;;;;;;;;;;;;;26.64;38.10;95617.00;4956577;28;7344;-39
2024/01/30 09:16:24;;;;;;;;;;;;;;;26.62;37.52;95605.69;4937905;28;7085;-39
2024/01/30 09:18:50;;;;;;;;;;;;;;;26.61;37.51;95615.22;4956269;28;6969;-37
2024/01/30 09:21:16;;;;;;;;;;;;;;;26.64;37.52;95617.00;4915510;28;9548;-40
2024/01/30 09:23:42;;;;;;;;;;;;;;;26.62;37.21;95613.97;4926201;29;6968;-39
2024/01/30 09:26:20;;;;;;;;;;;;;;;26.65;37.63;95618.50;4939673;28;7232;-40
2024/01/30 09:28:47;;;;;;;;;;;;;;;26.67;37.52;95616.78;4941620;28;7308;-39
2024/01/30 09:31:33;;;;;;;;;;;;;;;26.69;37.37;95619.03;4924849;28;7249;-40
2024/01/30 09:34:02;;;;;;;;;;;;;;;26.66;37.51;95622.78;4920996;29;8038;-40
2024/01/30 09:36:37;;;;;;;;;;;;;;;26.68;37.37;95623.81;4959191;28;7244;-39
2024/01/30 09:39:14;;;;;;;;;;;;;;;26.68;37.27;95620.28;4954278;28;7142;-39
2024/01/30 09:42:23;;;;;;;;;;;;;;;26.68;37.20;95614.78;4946077;28;6972;-37
2024/01/30 09:45:07;;;;;;;;;;;;;;;26.66;37.39;95620.03;4982182;28;8814;-37
2024/01/30 09:47:44;;;;;;;;;;;;;;;26.66;37.54;95609.75;5027661;28;7611;-37
2024/01/30 09:50:48;;;;;;;;;;;;;;;26.68;37.34;95620.28;5059200;28;7059;-37
2024/01/30 09:53:18;;;;;;;;;;;;;;;26.67;37.15;95619.53;5074674;28;7082;-37
2024/01/30 09:55:46;;;;;;;;;;;;;;;26.67;37.30;95625.06;5056105;28;8669;-37
2024/01/30 09:58:22;;;;;;;;;;;;;;;26.67;37.47;95627.06;5080856;28;7327;-37
2024/01/30 10:00:54;;;;;;;;;;;;;;;26.67;37.98;95624.28;5071350;28;9309;-37
2024/01/30 10:03:25;;;;;;;;;;;;;;;26.68;37.22;95626.59;5080298;28;7264;-37
2024/01/30 10:05:55;;;;;;;;;;;;;;;26.68;37.26;95623.06;5048180;28;9235;-37
2024/01/30 10:08:31;;;;;;;;;;;;;;;26.66;37.61;95623.56;5055092;28;8823;-37
2024/01/30 10:10:59;;;;;;;;;;;;;;;26.64;37.51;95623.25;5065457;28;9168;-37
2024/01/30 10:13:30;;;;;;;;;;;;;;;26.63;37.64;95616.25;5055401;28;7283;-37
2024/01/30 10:15:58;;;;;;;;;;;;;;;26.62;37.93;95627.78;5050288;28;7398;-37
2024/01/30 10:18:42;;;;;;;;;;;;;;;26.63;37.03;95623.75;5050566;28;7247;-37
2024/01/30 10:21:09;;;;;;;;;;;;;;;26.65;37.79;95626.78;5065260;28;6990;-37
2024/01/30 10:23:36;;;;;;;;;;;;;;;26.65;38.02;95621.25;5047212;28;7007;-37
2024/01/30 10:26:37;;;;;;;;;;;;;;;26.67;38.15;95627.81;5062994;28;9243;-37
2024/01/30 10:29:12;;;;;;;;;;;;;;;26.67;37.73;95624.28;5002239;28;6988;-37
2024/01/30 10:32:08;;;;;;;;;;;;;;;26.70;38.20;95620.56;5013374;28;7439;-37
2024/01/30 10:34:37;;;;;;;;;;;;;;;26.72;37.82;95618.06;5008632;28;8938;-37
2024/01/30 10:37:25;;;;;;;;;;;;;;;26.77;38.00;95622.91;5024012;28;7567;-37
2024/01/30 10:40:07;;;;;;;;;;;;;;;26.79;37.67;95620.44;5010596;28;7033;-37
2024/01/30 10:42:55;;;;;;;;;;;;;;;26.78;37.95;95619.66;5007602;28;7124;-37
2024/01/30 10:45:37;;;;;;;;;;;;;;;26.83;37.73;95621.72;5004141;28;6984;-37
2024/01/30 10:48:16;;;;;;;;;;;;;;;26.83;37.88;95620.97;5007676;28;7463;-37
2024/01/30 10:50:43;;;;;;;;;;;;;;;26.84;37.76;95612.19;4995932;28;7515;-37
2024/01/30 10:53:11;;;;;;;;;;;;;;;26.86;37.74;95620.72;5003936;28;6936;-37
2024/01/30 10:55:41;;;;;;;;;;;;;;;26.82;37.57;95619.44;5000298;28;9470;-37
2024/01/30 10:58:19;;;;;;;;;;;;;;;26.85;37.82;95607.41;5027285;28;7179;-37
2024/01/30 11:00:56;;;;;;;;;;;;;;;26.89;37.77;95617.00;4996493;28;6974;-37
2024/01/30 11:03:42;;;;;;;;;;;;;;;26.88;37.88;95611.97;5010856;28;7381;-37
2024/01/30 11:06:41;;;;;;;;;;;;;;;26.89;37.49;95608.72;5090764;28;9321;-37
2024/01/30 11:09:12;;;;;;;;;;;;;;;26.92;37.61;95606.22;4982178;28;7573;-37
2024/01/30 11:11:59;;;;;;;;;;;;;;;26.90;37.46;95612.22;4965977;28;8752;-37
2024/01/30 11:14:31;;;;;;;;;;;;;;;26.89;37.49;95603.19;4995504;28;7458;-37
2024/01/30 11:16:59;;;;;;;;;;;;;;;26.90;37.17;95601.19;4994127;28;7243;-37
2024/01/30 11:19:32;;;;;;;;;;;;;;;26.89;37.61;95596.91;4981820;28;8050;-37
2024/01/30 11:22:00;;;;;;;;;;;;;;;26.92;37.57;95597.94;4977154;28;8867;-37
2024/01/30 11:24:27;;;;;;;;;;;;;;;26.90;37.89;95598.44;4981934;28;7175;-37
2024/01/30 11:27:01;;;;;;;;;;;;;;;26.86;37.78;95598.63;4978226;28;7935;-37
2024/01/30 11:29:51;;;;;;;;;;;;;;;26.88;37.41;95595.41;4982947;28;7000;-37
2024/01/30 11:32:36;;;;;;;;;;;;;;;26.90;37.41;95590.16;4979071;28;9063;-37
2024/01/30 11:35:15;;;;;;;;;;;;;;;26.91;37.64;95597.16;4973040;28;8672;-37
2024/01/30 11:37:49;;;;;;;;;;;;;;;26.88;37.48;95585.09;4980232;28;7357;-37
2024/01/30 11:40:29;;;;;;;;;;;;;;;26.89;37.87;95585.88;4975077;28;9137;-37
2024/01/30 11:43:05;;;;;;;;;;;;;;;26.84;37.84;95578.28;4979972;28;7238;-37
2024/01/30 11:45:33;;;;;;;;;;;;;;;26.88;38.04;95587.84;5037956;28;7247;-37
2024/01/30 11:48:01;;;;;;;;;;;;;;;26.86;38.13;95587.59;5046956;28;6991;-37
2024/01/30 11:50:27;;;;;;;;;;;;;;;26.87;38.21;95577.31;5053016;28;8806;-37
2024/01/30 11:52:57;;;;;;;;;;;;;;;26.86;38.25;95581.34;5048376;28;8753;-37
2024/01/30 11:55:26;;;;;;;;;;;;;;;26.86;38.11;95579.31;5076631;28;8243;-37
2024/01/30 11:57:57;;;;;;;;;;;;;;;26.88;38.08;95584.38;5061677;28;7237;-37
2024/01/30 12:00:23;;;;;;;;;;;;;;;26.86;38.11;95586.88;5084085;28;9206;-57
2024/01/30 12:03:18;;;;;;;;;;;;;;;26.89;38.23;95580.34;5057763;28;7423;-58
2024/01/30 12:06:22;;;;;;;;;;;;;;;26.90;38.15;95582.59;5053220;28;9153;-57
2024/01/30 12:09:08;;;;;;;;;;;;;;;26.92;38.10;95579.38;5067762;28;9085;-58
2024/01/30 12:11:57;;;;;;;;;;;;;;;26.95;38.08;95578.38;5054268;28;9304;-57
2024/01/30 12:14:25;;;;;;;;;;;;;;;26.99;37.51;95572.63;5059844;28;9110;-57
2024/01/30 12:16:52;;;;;;;;;;;;;;;27.03;37.74;95578.69;5064963;28;7479;-57
2024/01/30 12:19:24;;;;;;;;;;;;;;;27.04;36.86;95574.66;5060361;28;7329;-57
2024/01/30 12:21:59;;;;;;;;;;;;;;;27.02;36.67;95572.41;5084391;28;7054;-57
2024/01/30 12:24:32;;;;;;;;;;;;;;;27.01;37.47;95570.91;5053653;28;7262;-57
2024/01/30 12:27:00;;;;;;;;;;;;;;;27.00;36.79;95566.63;5056648;28;7381;-57
2024/01/30 12:29:27;;;;;;;;;;;;;;;26.99;37.01;95570.63;5064556;28;9209;-57
2024/01/30 12:31:54;;;;;;;;;;;;;;;27.02;36.47;95572.41;5059391;28;9466;-57
2024/01/30 12:34:24;;;;;;;;;;;;;;;27.03;37.29;95565.66;5055422;28;7235;-57
2024/01/30 12:36:53;;;;;;;;;;;;;;;27.04;36.99;95574.66;5053367;28;7256;-57
2024/01/30 12:39:21;;;;;;;;;;;;;;;27.06;37.22;95572.16;5052182;28;7001;-57
2024/01/30 12:41:58;;;;;;;;;;;;;;;27.09;36.68;95565.66;5051955;28;8615;-57
2024/01/30 12:44:28;;;;;;;;;;;;;;;27.09;37.16;95563.66;5044022;28;7136;-57
2024/01/30 12:47:04;;;;;;;;;;;;;;;27.11;37.41;95563.94;5057635;28;7100;-58
2024/01/30 12:50:10;;;;;;;;;;;;;;;27.10;37.46;95562.41;5046053;28;9122;-57
2024/01/30 12:52:49;;;;;;;;;;;;;;;27.11;37.20;95555.63;5020175;28;9182;-57
2024/01/30 12:55:44;;;;;;;;;;;;;;;27.17;37.31;95555.66;5008980;28;7237;-58
2024/01/30 12:58:10;;;;;;;;;;;;;;;27.17;37.35;95558.44;5024517;28;7196;-58
2024/01/30 13:00:47;;;;;;;;;;;;;;;27.16;37.49;95559.69;5013412;28;7244;-57
2024/01/30 13:03:23;;;;;;;;;;;;;;;27.19;37.07;95562.22;5011324;28;7314;-58
2024/01/30 13:06:05;;;;;;;;;;;;;;;27.21;37.53;95561.75;5029020;28;9506;-59
2024/01/30 13:08:52;;;;;;;;;;;;;;;27.25;37.35;95560.22;5023160;28;7073;-58
2024/01/30 13:11:18;;;;;;;;;;;;;;;27.27;37.28;95563.28;5014167;28;7055;-38
2024/01/30 13:13:58;;;;;;;;;;;;;;;27.27;37.28;95568.03;5025851;28;7290;-37
2024/01/30 13:16:55;;;;;;;;;;;;;;;27.29;37.43;95560.78;5011570;28;7199;-38
2024/01/30 13:19:49;;;;;;;;;;;;;;;27.32;37.45;95567.28;4946493;28;7368;-37
2024/01/30 13:22:15;;;;;;;;;;;;;;;27.33;37.22;95569.59;4943407;28;7297;-37
2024/01/30 13:24:41;;;;;;;;;;;;;;;27.32;37.39;95568.06;4948417;28;7444;-38
2024/01/30 13:27:25;;;;;;;;;;;;;;;27.33;37.28;95563.28;4974952;28;6940;-37
2024/01/30 13:30:03;;;;;;;;;;;;;;;27.36;37.20;95563.09;4967085;28;7319;-37
2024/01/30 13:32:41;;;;;;;;;;;;;;;27.37;37.36;95564.59;4980566;28;7501;-37
2024/01/30 13:35:17;;;;;;;;;;;;;;;27.39;37.24;95566.88;4978353;28;8954;-37
2024/01/30 13:37:55;;;;;;;;;;;;;;;27.39;37.44;95567.63;4971719;28;9131;-37